sensor_id;sensor_type;location;lat;lon;timestamp;P1;durP1;ratioP1;P2;durP2;ratioP2
85077;SDS011;75413;50.144;8.456;2024-03-23T00:52:44;23.50;;;12.80;;
85077;SDS011;75413;50.144;8.456;2024-03-23T00:55:29;18.77;;;11.15;;
85077;SDS011;75413;50.144;8.456;2024-03-23T01:00:57;21.13;;;12.35;;
85077;SDS011;75413;50.144;8.456;2024-03-23T01:03:41;16.70;;;10.80;;
85077;SDS011;75413;50.144;8.456;2024-03-23T01:06:25;19.25;;;10.50;;
85077;SDS011;75413;50.144;8.456;2024-03-23T01:11:54;17.23;;;10.52;;
85077;SDS011;75413;50.144;8.456;2024-03-23T01:14:38;17.63;;;9.57;;
85077;SDS011;75413;50.144;8.456;2024-03-23T01:17:22;17.50;;;10.57;;
85077;SDS011;75413;50.144;8.456;2024-03-23T01:22:50;17.85;;;11.05;;
85077;SDS011;75413;50.144;8.456;2024-03-23T01:28:21;16.05;;;10.15;;
85077;SDS011;75413;50.144;8.456;2024-03-23T01:31:06;18.30;;;9.90;;
85077;SDS011;75413;50.144;8.456;2024-03-23T01:33:49;15.07;;;10.00;;
85077;SDS011;75413;50.144;8.456;2024-03-23T01:36:34;15.13;;;9.35;;
85077;SDS011;75413;50.144;8.456;2024-03-23T01:39:17;14.32;;;9.05;;
85077;SDS011;75413;50.144;8.456;2024-03-23T01:42:01;15.70;;;9.15;;
85077;SDS011;75413;50.144;8.456;2024-03-23T01:44:46;17.27;;;9.70;;
85077;SDS011;75413;50.144;8.456;2024-03-23T01:50:14;12.70;;;8.93;;
85077;SDS011;75413;50.144;8.456;2024-03-23T01:52:57;20.17;;;10.98;;
85077;SDS011;75413;50.144;8.456;2024-03-23T01:55:42;14.30;;;10.27;;
85077;SDS011;75413;50.144;8.456;2024-03-23T01:58:26;13.07;;;8.35;;
85077;SDS011;75413;50.144;8.456;2024-03-23T02:01:10;16.83;;;9.48;;
85077;SDS011;75413;50.144;8.456;2024-03-23T02:03:54;13.18;;;8.23;;
85077;SDS011;75413;50.144;8.456;2024-03-23T02:06:38;13.57;;;8.68;;
85077;SDS011;75413;50.144;8.456;2024-03-23T02:09:22;14.30;;;8.68;;
85077;SDS011;75413;50.144;8.456;2024-03-23T02:12:06;12.68;;;9.35;;
85077;SDS011;75413;50.144;8.456;2024-03-23T02:14:50;15.52;;;8.73;;
85077;SDS011;75413;50.144;8.456;2024-03-23T02:17:35;12.57;;;8.75;;
85077;SDS011;75413;50.144;8.456;2024-03-23T02:20:19;15.63;;;8.98;;
85077;SDS011;75413;50.144;8.456;2024-03-23T02:23:03;16.88;;;10.23;;
85077;SDS011;75413;50.144;8.456;2024-03-23T02:25:49;15.38;;;9.73;;
85077;SDS011;75413;50.144;8.456;2024-03-23T02:31:17;24.20;;;12.50;;
85077;SDS011;75413;50.144;8.456;2024-03-23T02:34:01;22.20;;;12.00;;
85077;SDS011;75413;50.144;8.456;2024-03-23T02:36:45;20.73;;;13.48;;
85077;SDS011;75413;50.144;8.456;2024-03-23T02:39:29;22.15;;;12.25;;
85077;SDS011;75413;50.144;8.456;2024-03-23T02:42:13;18.35;;;11.23;;
85077;SDS011;75413;50.144;8.456;2024-03-23T02:47:42;17.48;;;9.85;;
85077;SDS011;75413;50.144;8.456;2024-03-23T02:53:10;15.40;;;9.75;;
85077;SDS011;75413;50.144;8.456;2024-03-23T02:55:54;19.35;;;10.70;;
85077;SDS011;75413;50.144;8.456;2024-03-23T02:58:38;19.90;;;12.30;;
85077;SDS011;75413;50.144;8.456;2024-03-23T03:01:22;24.67;;;13.90;;
85077;SDS011;75413;50.144;8.456;2024-03-23T03:06:50;23.05;;;12.98;;
85077;SDS011;75413;50.144;8.456;2024-03-23T03:09:34;29.33;;;14.07;;
85077;SDS011;75413;50.144;8.456;2024-03-23T03:12:18;24.30;;;13.20;;
85077;SDS011;75413;50.144;8.456;2024-03-23T03:15:03;24.70;;;13.95;;
85077;SDS011;75413;50.144;8.456;2024-03-23T03:17:49;22.92;;;12.70;;
85077;SDS011;75413;50.144;8.456;2024-03-23T03:23:17;22.25;;;12.52;;
85077;SDS011;75413;50.144;8.456;2024-03-23T03:26:02;25.13;;;14.02;;
85077;SDS011;75413;50.144;8.456;2024-03-23T03:28:46;26.20;;;14.20;;
85077;SDS011;75413;50.144;8.456;2024-03-23T03:31:33;25.60;;;14.30;;
85077;SDS011;75413;50.144;8.456;2024-03-23T03:34:17;28.42;;;16.48;;
85077;SDS011;75413;50.144;8.456;2024-03-23T03:37:01;32.63;;;17.90;;
85077;SDS011;75413;50.144;8.456;2024-03-23T03:42:29;33.35;;;17.52;;
85077;SDS011;75413;50.144;8.456;2024-03-23T03:47:56;34.25;;;17.98;;
85077;SDS011;75413;50.144;8.456;2024-03-23T03:50:40;38.67;;;19.98;;
85077;SDS011;75413;50.144;8.456;2024-03-23T03:53:25;26.88;;;13.50;;
85077;SDS011;75413;50.144;8.456;2024-03-23T03:56:10;18.38;;;8.43;;
85077;SDS011;75413;50.144;8.456;2024-03-23T04:01:38;6.15;;;3.20;;
85077;SDS011;75413;50.144;8.456;2024-03-23T04:04:22;4.10;;;2.50;;
85077;SDS011;75413;50.144;8.456;2024-03-23T04:07:06;1.38;;;1.05;;
85077;SDS011;75413;50.144;8.456;2024-03-23T04:09:50;2.38;;;1.20;;
85077;SDS011;75413;50.144;8.456;2024-03-23T04:12:34;1.08;;;0.60;;
85077;SDS011;75413;50.144;8.456;2024-03-23T04:15:18;0.88;;;0.68;;
85077;SDS011;75413;50.144;8.456;2024-03-23T04:18:02;1.52;;;0.70;;
85077;SDS011;75413;50.144;8.456;2024-03-23T04:20:46;0.68;;;0.50;;
85077;SDS011;75413;50.144;8.456;2024-03-23T04:23:30;0.82;;;0.50;;
85077;SDS011;75413;50.144;8.456;2024-03-23T04:26:15;1.50;;;0.65;;
85077;SDS011;75413;50.144;8.456;2024-03-23T04:28:59;1.00;;;0.73;;
85077;SDS011;75413;50.144;8.456;2024-03-23T04:31:43;1.40;;;0.75;;
85077;SDS011;75413;50.144;8.456;2024-03-23T04:34:27;3.13;;;1.85;;
85077;SDS011;75413;50.144;8.456;2024-03-23T04:37:11;0.93;;;0.65;;
85077;SDS011;75413;50.144;8.456;2024-03-23T04:39:55;1.13;;;0.52;;
85077;SDS011;75413;50.144;8.456;2024-03-23T04:42:39;1.48;;;0.73;;
85077;SDS011;75413;50.144;8.456;2024-03-23T04:45:23;0.70;;;0.60;;
85077;SDS011;75413;50.144;8.456;2024-03-23T04:48:07;1.58;;;1.10;;
85077;SDS011;75413;50.144;8.456;2024-03-23T04:50:55;2.17;;;1.00;;
85077;SDS011;75413;50.144;8.456;2024-03-23T04:53:41;1.50;;;1.08;;
85077;SDS011;75413;50.144;8.456;2024-03-23T04:56:25;1.10;;;0.75;;
85077;SDS011;75413;50.144;8.456;2024-03-23T04:59:09;1.52;;;1.08;;
85077;SDS011;75413;50.144;8.456;2024-03-23T05:01:53;1.80;;;1.20;;
85077;SDS011;75413;50.144;8.456;2024-03-23T05:04:37;3.00;;;1.05;;
85077;SDS011;75413;50.144;8.456;2024-03-23T05:07:21;1.25;;;1.10;;
85077;SDS011;75413;50.144;8.456;2024-03-23T05:10:05;2.20;;;1.00;;
85077;SDS011;75413;50.144;8.456;2024-03-23T05:12:49;2.15;;;1.13;;
85077;SDS011;75413;50.144;8.456;2024-03-23T05:15:33;1.20;;;1.10;;
85077;SDS011;75413;50.144;8.456;2024-03-23T05:18:17;1.52;;;1.27;;
85077;SDS011;75413;50.144;8.456;2024-03-23T05:21:01;1.80;;;1.50;;
85077;SDS011;75413;50.144;8.456;2024-03-23T05:23:45;2.10;;;0.93;;
85077;SDS011;75413;50.144;8.456;2024-03-23T05:26:29;1.48;;;1.15;;
85077;SDS011;75413;50.144;8.456;2024-03-23T05:29:14;1.88;;;1.60;;
85077;SDS011;75413;50.144;8.456;2024-03-23T05:32:01;2.10;;;1.42;;
85077;SDS011;75413;50.144;8.456;2024-03-23T05:34:45;1.45;;;0.90;;
85077;SDS011;75413;50.144;8.456;2024-03-23T05:37:29;1.10;;;0.90;;
85077;SDS011;75413;50.144;8.456;2024-03-23T05:40:15;1.77;;;1.13;;
85077;SDS011;75413;50.144;8.456;2024-03-23T05:42:58;0.82;;;0.77;;
85077;SDS011;75413;50.144;8.456;2024-03-23T05:45:43;0.93;;;0.60;;
85077;SDS011;75413;50.144;8.456;2024-03-23T05:48:27;1.45;;;0.90;;
85077;SDS011;75413;50.144;8.456;2024-03-23T05:51:11;1.58;;;0.45;;
85077;SDS011;75413;50.144;8.456;2024-03-23T05:53:56;0.98;;;0.90;;
85077;SDS011;75413;50.144;8.456;2024-03-23T05:56:40;0.43;;;0.43;;
85077;SDS011;75413;50.144;8.456;2024-03-23T05:59:24;1.40;;;0.85;;
85077;SDS011;75413;50.144;8.456;2024-03-23T06:02:08;3.38;;;0.68;;
85077;SDS011;75413;50.144;8.456;2024-03-23T06:04:54;2.00;;;0.70;;
85077;SDS011;75413;50.144;8.456;2024-03-23T06:07:38;0.90;;;0.63;;
85077;SDS011;75413;50.144;8.456;2024-03-23T06:10:22;1.48;;;0.70;;
85077;SDS011;75413;50.144;8.456;2024-03-23T06:13:06;1.70;;;0.80;;
85077;SDS011;75413;50.144;8.456;2024-03-23T06:15:50;1.60;;;0.88;;
85077;SDS011;75413;50.144;8.456;2024-03-23T06:18:34;0.73;;;0.73;;
85077;SDS011;75413;50.144;8.456;2024-03-23T06:21:18;1.33;;;1.10;;
85077;SDS011;75413;50.144;8.456;2024-03-23T06:24:02;2.83;;;0.90;;
85077;SDS011;75413;50.144;8.456;2024-03-23T06:26:46;1.52;;;1.15;;
85077;SDS011;75413;50.144;8.456;2024-03-23T06:29:30;1.50;;;0.90;;
85077;SDS011;75413;50.144;8.456;2024-03-23T06:32:14;1.48;;;1.08;;
85077;SDS011;75413;50.144;8.456;2024-03-23T06:34:58;1.38;;;0.70;;
85077;SDS011;75413;50.144;8.456;2024-03-23T06:37:41;0.70;;;0.60;;
85077;SDS011;75413;50.144;8.456;2024-03-23T06:40:26;2.10;;;1.42;;
85077;SDS011;75413;50.144;8.456;2024-03-23T06:43:09;1.65;;;0.80;;
85077;SDS011;75413;50.144;8.456;2024-03-23T06:45:53;2.33;;;0.60;;
85077;SDS011;75413;50.144;8.456;2024-03-23T06:51:22;2.47;;;0.90;;
85077;SDS011;75413;50.144;8.456;2024-03-23T06:54:06;1.45;;;0.70;;
85077;SDS011;75413;50.144;8.456;2024-03-23T06:56:50;2.85;;;0.77;;
85077;SDS011;75413;50.144;8.456;2024-03-23T06:59:34;4.00;;;1.00;;
85077;SDS011;75413;50.144;8.456;2024-03-23T07:02:18;2.90;;;0.90;;
85077;SDS011;75413;50.144;8.456;2024-03-23T07:05:02;3.45;;;1.48;;
85077;SDS011;75413;50.144;8.456;2024-03-23T07:07:47;3.97;;;1.10;;
85077;SDS011;75413;50.144;8.456;2024-03-23T07:10:31;1.63;;;0.90;;
85077;SDS011;75413;50.144;8.456;2024-03-23T07:13:15;2.22;;;0.93;;
85077;SDS011;75413;50.144;8.456;2024-03-23T07:16:00;2.90;;;1.35;;
85077;SDS011;75413;50.144;8.456;2024-03-23T07:18:44;4.80;;;1.48;;
85077;SDS011;75413;50.144;8.456;2024-03-23T07:21:28;6.18;;;1.80;;
85077;SDS011;75413;50.144;8.456;2024-03-23T07:24:12;2.67;;;1.25;;
85077;SDS011;75413;50.144;8.456;2024-03-23T07:26:57;4.03;;;1.60;;
85077;SDS011;75413;50.144;8.456;2024-03-23T07:29:41;3.08;;;1.90;;
85077;SDS011;75413;50.144;8.456;2024-03-23T07:32:25;4.13;;;2.55;;
85077;SDS011;75413;50.144;8.456;2024-03-23T07:35:10;8.00;;;3.17;;
85077;SDS011;75413;50.144;8.456;2024-03-23T07:37:54;6.60;;;2.80;;
85077;SDS011;75413;50.144;8.456;2024-03-23T07:40:38;5.50;;;2.88;;
85077;SDS011;75413;50.144;8.456;2024-03-23T07:43:23;5.60;;;2.92;;
85077;SDS011;75413;50.144;8.456;2024-03-23T07:46:07;5.32;;;2.78;;
85077;SDS011;75413;50.144;8.456;2024-03-23T07:48:51;8.48;;;2.95;;
85077;SDS011;75413;50.144;8.456;2024-03-23T07:51:35;8.02;;;3.67;;
85077;SDS011;75413;50.144;8.456;2024-03-23T07:54:19;6.38;;;4.03;;
85077;SDS011;75413;50.144;8.456;2024-03-23T07:57:03;8.88;;;3.53;;
85077;SDS011;75413;50.144;8.456;2024-03-23T07:59:48;4.68;;;2.95;;
85077;SDS011;75413;50.144;8.456;2024-03-23T08:02:32;5.05;;;3.40;;
85077;SDS011;75413;50.144;8.456;2024-03-23T08:05:16;8.65;;;3.75;;
85077;SDS011;75413;50.144;8.456;2024-03-23T08:08:00;4.72;;;3.55;;
85077;SDS011;75413;50.144;8.456;2024-03-23T08:10:50;8.23;;;3.17;;
85077;SDS011;75413;50.144;8.456;2024-03-23T08:13:35;3.65;;;2.63;;
85077;SDS011;75413;50.144;8.456;2024-03-23T08:16:22;6.22;;;3.45;;
85077;SDS011;75413;50.144;8.456;2024-03-23T08:19:07;5.35;;;3.75;;
85077;SDS011;75413;50.144;8.456;2024-03-23T08:21:52;4.22;;;3.30;;
85077;SDS011;75413;50.144;8.456;2024-03-23T08:24:38;5.00;;;2.97;;
85077;SDS011;75413;50.144;8.456;2024-03-23T08:27:21;7.82;;;3.03;;
85077;SDS011;75413;50.144;8.456;2024-03-23T08:30:06;5.35;;;2.85;;
85077;SDS011;75413;50.144;8.456;2024-03-23T08:32:50;6.32;;;3.13;;
85077;SDS011;75413;50.144;8.456;2024-03-23T08:35:34;9.18;;;3.08;;
85077;SDS011;75413;50.144;8.456;2024-03-23T08:38:19;5.97;;;2.72;;
85077;SDS011;75413;50.144;8.456;2024-03-23T08:41:03;7.20;;;2.83;;
85077;SDS011;75413;50.144;8.456;2024-03-23T08:43:49;10.18;;;3.22;;
85077;SDS011;75413;50.144;8.456;2024-03-23T08:46:33;8.88;;;2.78;;
85077;SDS011;75413;50.144;8.456;2024-03-23T08:49:17;8.93;;;3.10;;
85077;SDS011;75413;50.144;8.456;2024-03-23T08:52:02;12.15;;;3.40;;
85077;SDS011;75413;50.144;8.456;2024-03-23T08:54:46;5.38;;;2.70;;
85077;SDS011;75413;50.144;8.456;2024-03-23T08:57:29;7.72;;;3.33;;
85077;SDS011;75413;50.144;8.456;2024-03-23T09:00:14;4.78;;;3.05;;
85077;SDS011;75413;50.144;8.456;2024-03-23T09:02:58;8.25;;;2.92;;
85077;SDS011;75413;50.144;8.456;2024-03-23T09:05:42;11.90;;;3.25;;
85077;SDS011;75413;50.144;8.456;2024-03-23T09:08:26;6.05;;;2.88;;
85077;SDS011;75413;50.144;8.456;2024-03-23T09:11:14;6.20;;;3.10;;
85077;SDS011;75413;50.144;8.456;2024-03-23T09:13:58;9.45;;;3.25;;
85077;SDS011;75413;50.144;8.456;2024-03-23T09:16:42;9.48;;;3.55;;
85077;SDS011;75413;50.144;8.456;2024-03-23T09:19:29;7.38;;;4.22;;
85077;SDS011;75413;50.144;8.456;2024-03-23T09:22:13;11.65;;;3.95;;
85077;SDS011;75413;50.144;8.456;2024-03-23T09:24:57;5.22;;;2.70;;
85077;SDS011;75413;50.144;8.456;2024-03-23T09:27:41;9.40;;;3.15;;
85077;SDS011;75413;50.144;8.456;2024-03-23T09:30:25;8.63;;;3.22;;
85077;SDS011;75413;50.144;8.456;2024-03-23T09:33:09;8.00;;;2.80;;
85077;SDS011;75413;50.144;8.456;2024-03-23T09:35:54;6.45;;;3.05;;
85077;SDS011;75413;50.144;8.456;2024-03-23T09:38:38;7.90;;;3.67;;
85077;SDS011;75413;50.144;8.456;2024-03-23T09:41:24;7.80;;;3.10;;
85077;SDS011;75413;50.144;8.456;2024-03-23T09:44:08;9.07;;;3.08;;
85077;SDS011;75413;50.144;8.456;2024-03-23T09:46:52;11.23;;;2.30;;
85077;SDS011;75413;50.144;8.456;2024-03-23T09:49:36;6.28;;;2.00;;
85077;SDS011;75413;50.144;8.456;2024-03-23T09:52:21;6.88;;;2.35;;
85077;SDS011;75413;50.144;8.456;2024-03-23T09:55:05;6.43;;;1.77;;
85077;SDS011;75413;50.144;8.456;2024-03-23T09:57:50;9.60;;;1.70;;
85077;SDS011;75413;50.144;8.456;2024-03-23T10:00:34;13.07;;;2.03;;
85077;SDS011;75413;50.144;8.456;2024-03-23T10:03:18;5.80;;;1.65;;
85077;SDS011;75413;50.144;8.456;2024-03-23T10:06:02;2.90;;;1.40;;
85077;SDS011;75413;50.144;8.456;2024-03-23T10:08:48;4.15;;;1.13;;
85077;SDS011;75413;50.144;8.456;2024-03-23T10:14:28;5.72;;;2.10;;
85077;SDS011;75413;50.144;8.456;2024-03-23T10:17:17;5.93;;;2.00;;
85077;SDS011;75413;50.144;8.456;2024-03-23T10:20:03;2.58;;;1.42;;
85077;SDS011;75413;50.144;8.456;2024-03-23T10:22:49;8.23;;;1.63;;
85077;SDS011;75413;50.144;8.456;2024-03-23T10:25:35;5.15;;;1.30;;
85077;SDS011;75413;50.144;8.456;2024-03-23T10:28:19;5.63;;;1.67;;
85077;SDS011;75413;50.144;8.456;2024-03-23T10:31:08;5.10;;;1.48;;
85077;SDS011;75413;50.144;8.456;2024-03-23T10:33:56;6.20;;;1.50;;
85077;SDS011;75413;50.144;8.456;2024-03-23T10:36:40;8.68;;;1.77;;
85077;SDS011;75413;50.144;8.456;2024-03-23T10:39:25;4.75;;;1.65;;
85077;SDS011;75413;50.144;8.456;2024-03-23T10:42:09;4.47;;;1.48;;
85077;SDS011;75413;50.144;8.456;2024-03-23T10:44:58;4.97;;;1.20;;
85077;SDS011;75413;50.144;8.456;2024-03-23T10:47:43;4.28;;;1.20;;
85077;SDS011;75413;50.144;8.456;2024-03-23T10:50:27;6.50;;;1.40;;
85077;SDS011;75413;50.144;8.456;2024-03-23T10:53:12;4.85;;;1.42;;
85077;SDS011;75413;50.144;8.456;2024-03-23T10:55:57;3.88;;;1.80;;
85077;SDS011;75413;50.144;8.456;2024-03-23T10:58:43;3.70;;;1.40;;
85077;SDS011;75413;50.144;8.456;2024-03-23T11:01:30;6.60;;;2.00;;
85077;SDS011;75413;50.144;8.456;2024-03-23T11:04:24;4.32;;;1.35;;
85077;SDS011;75413;50.144;8.456;2024-03-23T11:10:24;5.13;;;1.42;;
85077;SDS011;75413;50.144;8.456;2024-03-23T11:13:21;6.82;;;1.40;;
85077;SDS011;75413;50.144;8.456;2024-03-23T11:22:36;3.83;;;1.40;;
85077;SDS011;75413;50.144;8.456;2024-03-23T11:25:25;4.50;;;1.55;;
85077;SDS011;75413;50.144;8.456;2024-03-23T11:28:11;6.85;;;1.90;;
85077;SDS011;75413;50.144;8.456;2024-03-23T11:30:55;6.35;;;2.15;;
85077;SDS011;75413;50.144;8.456;2024-03-23T11:33:39;6.82;;;2.38;;
85077;SDS011;75413;50.144;8.456;2024-03-23T11:36:23;9.02;;;2.00;;
85077;SDS011;75413;50.144;8.456;2024-03-23T11:39:14;5.40;;;1.77;;
85077;SDS011;75413;50.144;8.456;2024-03-23T11:42:02;5.90;;;3.10;;
85077;SDS011;75413;50.144;8.456;2024-03-23T11:44:46;4.25;;;2.70;;
85077;SDS011;75413;50.144;8.456;2024-03-23T11:47:31;4.50;;;2.50;;
85077;SDS011;75413;50.144;8.456;2024-03-23T11:50:21;3.17;;;1.77;;
85077;SDS011;75413;50.144;8.456;2024-03-23T11:55:55;5.15;;;2.05;;
85077;SDS011;75413;50.144;8.456;2024-03-23T11:58:40;5.97;;;2.03;;
85077;SDS011;75413;50.144;8.456;2024-03-23T12:01:24;4.63;;;3.15;;
85077;SDS011;75413;50.144;8.456;2024-03-23T12:04:08;5.10;;;1.95;;
85077;SDS011;75413;50.144;8.456;2024-03-23T12:07:08;2.40;;;1.40;;
85077;SDS011;75413;50.144;8.456;2024-03-23T12:10:05;5.90;;;2.40;;
85077;SDS011;75413;50.144;8.456;2024-03-23T12:13:00;4.22;;;1.90;;
85077;SDS011;75413;50.144;8.456;2024-03-23T12:15:49;7.30;;;2.83;;
85077;SDS011;75413;50.144;8.456;2024-03-23T12:18:34;5.32;;;2.03;;
85077;SDS011;75413;50.144;8.456;2024-03-23T12:21:18;2.33;;;1.45;;
85077;SDS011;75413;50.144;8.456;2024-03-23T12:24:02;4.38;;;1.63;;
85077;SDS011;75413;50.144;8.456;2024-03-23T12:26:47;3.50;;;1.48;;
85077;SDS011;75413;50.144;8.456;2024-03-23T12:29:34;6.05;;;1.50;;
85077;SDS011;75413;50.144;8.456;2024-03-23T12:32:18;5.88;;;1.85;;
85077;SDS011;75413;50.144;8.456;2024-03-23T12:35:02;3.22;;;1.20;;
85077;SDS011;75413;50.144;8.456;2024-03-23T12:37:47;5.05;;;1.38;;
85077;SDS011;75413;50.144;8.456;2024-03-23T12:43:15;4.80;;;2.83;;
85077;SDS011;75413;50.144;8.456;2024-03-23T12:45:59;4.82;;;1.95;;
85077;SDS011;75413;50.144;8.456;2024-03-23T12:48:44;4.07;;;1.77;;
85077;SDS011;75413;50.144;8.456;2024-03-23T12:51:29;6.38;;;2.08;;
85077;SDS011;75413;50.144;8.456;2024-03-23T12:54:13;7.03;;;2.15;;
85077;SDS011;75413;50.144;8.456;2024-03-23T12:56:56;7.57;;;2.55;;
85077;SDS011;75413;50.144;8.456;2024-03-23T12:59:40;4.97;;;1.60;;
85077;SDS011;75413;50.144;8.456;2024-03-23T13:02:24;2.00;;;0.90;;
85077;SDS011;75413;50.144;8.456;2024-03-23T13:05:08;1.60;;;0.77;;
85077;SDS011;75413;50.144;8.456;2024-03-23T13:07:52;1.48;;;0.47;;
85077;SDS011;75413;50.144;8.456;2024-03-23T13:10:36;2.20;;;0.82;;
85077;SDS011;75413;50.144;8.456;2024-03-23T13:13:20;2.80;;;0.77;;
85077;SDS011;75413;50.144;8.456;2024-03-23T13:16:05;1.30;;;0.60;;
85077;SDS011;75413;50.144;8.456;2024-03-23T13:18:49;3.15;;;0.70;;
85077;SDS011;75413;50.144;8.456;2024-03-23T13:21:33;5.15;;;1.65;;
85077;SDS011;75413;50.144;8.456;2024-03-23T13:24:23;1.42;;;1.00;;
85077;SDS011;75413;50.144;8.456;2024-03-23T13:27:09;2.20;;;0.93;;
85077;SDS011;75413;50.144;8.456;2024-03-23T13:29:54;1.98;;;0.60;;
85077;SDS011;75413;50.144;8.456;2024-03-23T13:32:38;1.83;;;0.50;;
85077;SDS011;75413;50.144;8.456;2024-03-23T13:35:22;0.85;;;0.32;;
85077;SDS011;75413;50.144;8.456;2024-03-23T13:38:09;0.60;;;0.40;;
85077;SDS011;75413;50.144;8.456;2024-03-23T13:40:56;0.52;;;0.40;;
85077;SDS011;75413;50.144;8.456;2024-03-23T13:43:42;0.60;;;0.40;;
85077;SDS011;75413;50.144;8.456;2024-03-23T13:46:26;2.35;;;0.25;;
85077;SDS011;75413;50.144;8.456;2024-03-23T13:49:13;0.88;;;0.40;;
85077;SDS011;75413;50.144;8.456;2024-03-23T13:52:08;0.80;;;0.17;;
85077;SDS011;75413;50.144;8.456;2024-03-23T13:54:52;0.20;;;0.20;;
85077;SDS011;75413;50.144;8.456;2024-03-23T13:57:36;2.03;;;0.50;;
85077;SDS011;75413;50.144;8.456;2024-03-23T14:00:20;0.63;;;0.40;;
85077;SDS011;75413;50.144;8.456;2024-03-23T14:03:04;2.83;;;0.40;;
85077;SDS011;75413;50.144;8.456;2024-03-23T14:05:49;2.20;;;0.77;;
85077;SDS011;75413;50.144;8.456;2024-03-23T14:11:23;1.65;;;0.30;;
85077;SDS011;75413;50.144;8.456;2024-03-23T14:14:06;0.95;;;0.35;;
85077;SDS011;75413;50.144;8.456;2024-03-23T14:16:51;1.40;;;0.70;;
85077;SDS011;75413;50.144;8.456;2024-03-23T14:19:36;1.48;;;0.82;;
85077;SDS011;75413;50.144;8.456;2024-03-23T14:22:20;0.65;;;0.55;;
85077;SDS011;75413;50.144;8.456;2024-03-23T14:25:07;0.77;;;0.20;;
85077;SDS011;75413;50.144;8.456;2024-03-23T14:27:51;1.58;;;0.30;;
85077;SDS011;75413;50.144;8.456;2024-03-23T14:30:35;0.85;;;0.50;;
85077;SDS011;75413;50.144;8.456;2024-03-23T14:33:19;0.80;;;0.40;;
85077;SDS011;75413;50.144;8.456;2024-03-23T14:36:03;1.48;;;0.38;;
85077;SDS011;75413;50.144;8.456;2024-03-23T14:38:48;1.25;;;0.50;;
85077;SDS011;75413;50.144;8.456;2024-03-23T14:41:32;0.40;;;0.35;;
85077;SDS011;75413;50.144;8.456;2024-03-23T14:47:00;2.00;;;0.77;;
85077;SDS011;75413;50.144;8.456;2024-03-23T14:49:44;1.40;;;0.50;;
85077;SDS011;75413;50.144;8.456;2024-03-23T14:52:34;1.23;;;0.57;;
85077;SDS011;75413;50.144;8.456;2024-03-23T14:55:17;2.10;;;1.02;;
85077;SDS011;75413;50.144;8.456;2024-03-23T14:58:01;1.75;;;0.50;;
85077;SDS011;75413;50.144;8.456;2024-03-23T15:00:45;0.60;;;0.40;;
85077;SDS011;75413;50.144;8.456;2024-03-23T15:03:29;2.03;;;1.13;;
85077;SDS011;75413;50.144;8.456;2024-03-23T15:06:13;0.63;;;0.40;;
85077;SDS011;75413;50.144;8.456;2024-03-23T15:08:57;0.60;;;0.52;;
85077;SDS011;75413;50.144;8.456;2024-03-23T15:11:41;1.83;;;0.70;;
85077;SDS011;75413;50.144;8.456;2024-03-23T15:14:25;1.10;;;0.40;;
85077;SDS011;75413;50.144;8.456;2024-03-23T15:17:09;1.85;;;0.40;;
85077;SDS011;75413;50.144;8.456;2024-03-23T15:19:53;2.60;;;0.47;;
85077;SDS011;75413;50.144;8.456;2024-03-23T15:22:40;1.08;;;0.43;;
85077;SDS011;75413;50.144;8.456;2024-03-23T15:25:24;1.33;;;0.50;;
85077;SDS011;75413;50.144;8.456;2024-03-23T15:28:08;1.35;;;0.60;;
85077;SDS011;75413;50.144;8.456;2024-03-23T15:30:52;0.57;;;0.40;;
85077;SDS011;75413;50.144;8.456;2024-03-23T15:33:35;0.57;;;0.32;;
85077;SDS011;75413;50.144;8.456;2024-03-23T15:36:20;2.10;;;1.00;;
85077;SDS011;75413;50.144;8.456;2024-03-23T15:39:05;1.35;;;0.60;;
85077;SDS011;75413;50.144;8.456;2024-03-23T15:41:49;2.92;;;0.70;;
85077;SDS011;75413;50.144;8.456;2024-03-23T15:44:33;2.60;;;0.63;;
85077;SDS011;75413;50.144;8.456;2024-03-23T15:47:17;2.13;;;0.77;;
85077;SDS011;75413;50.144;8.456;2024-03-23T15:50:02;2.33;;;0.68;;
85077;SDS011;75413;50.144;8.456;2024-03-23T15:52:51;2.58;;;0.70;;
85077;SDS011;75413;50.144;8.456;2024-03-23T15:55:35;1.50;;;0.70;;
85077;SDS011;75413;50.144;8.456;2024-03-23T15:58:19;0.85;;;0.63;;
85077;SDS011;75413;50.144;8.456;2024-03-23T16:01:04;2.72;;;0.85;;
85077;SDS011;75413;50.144;8.456;2024-03-23T16:03:50;4.45;;;1.23;;
85077;SDS011;75413;50.144;8.456;2024-03-23T16:06:34;3.33;;;0.68;;
85077;SDS011;75413;50.144;8.456;2024-03-23T16:09:18;1.73;;;0.60;;
85077;SDS011;75413;50.144;8.456;2024-03-23T16:12:02;4.25;;;1.13;;
85077;SDS011;75413;50.144;8.456;2024-03-23T16:14:49;1.70;;;0.60;;
85077;SDS011;75413;50.144;8.456;2024-03-23T16:17:33;0.93;;;0.50;;
85077;SDS011;75413;50.144;8.456;2024-03-23T16:20:19;1.30;;;0.63;;
85077;SDS011;75413;50.144;8.456;2024-03-23T16:23:04;2.78;;;0.65;;
85077;SDS011;75413;50.144;8.456;2024-03-23T16:25:52;3.20;;;1.42;;
85077;SDS011;75413;50.144;8.456;2024-03-23T16:28:41;2.20;;;0.68;;
85077;SDS011;75413;50.144;8.456;2024-03-23T16:31:24;3.50;;;0.73;;
85077;SDS011;75413;50.144;8.456;2024-03-23T16:34:08;0.93;;;0.47;;
85077;SDS011;75413;50.144;8.456;2024-03-23T16:36:52;3.15;;;1.05;;
85077;SDS011;75413;50.144;8.456;2024-03-23T16:39:36;2.05;;;0.63;;
85077;SDS011;75413;50.144;8.456;2024-03-23T16:42:20;0.95;;;0.77;;
85077;SDS011;75413;50.144;8.456;2024-03-23T16:45:05;1.45;;;0.50;;
85077;SDS011;75413;50.144;8.456;2024-03-23T16:47:51;1.27;;;0.65;;
85077;SDS011;75413;50.144;8.456;2024-03-23T16:50:35;2.60;;;0.60;;
85077;SDS011;75413;50.144;8.456;2024-03-23T16:53:19;2.35;;;0.90;;
85077;SDS011;75413;50.144;8.456;2024-03-23T16:56:03;0.85;;;0.73;;
85077;SDS011;75413;50.144;8.456;2024-03-23T16:58:53;3.80;;;1.40;;
85077;SDS011;75413;50.144;8.456;2024-03-23T17:01:38;1.25;;;0.93;;
85077;SDS011;75413;50.144;8.456;2024-03-23T17:04:22;1.83;;;0.50;;
85077;SDS011;75413;50.144;8.456;2024-03-23T17:07:07;4.78;;;0.60;;
85077;SDS011;75413;50.144;8.456;2024-03-23T17:09:51;1.83;;;0.77;;
85077;SDS011;75413;50.144;8.456;2024-03-23T17:12:36;1.27;;;0.77;;
85077;SDS011;75413;50.144;8.456;2024-03-23T17:15:19;1.30;;;0.57;;
85077;SDS011;75413;50.144;8.456;2024-03-23T17:18:05;2.78;;;1.45;;
85077;SDS011;75413;50.144;8.456;2024-03-23T17:20:50;2.85;;;0.80;;
85077;SDS011;75413;50.144;8.456;2024-03-23T17:23:34;1.33;;;0.50;;
85077;SDS011;75413;50.144;8.456;2024-03-23T17:26:19;3.05;;;0.80;;
85077;SDS011;75413;50.144;8.456;2024-03-23T17:29:03;2.25;;;0.65;;
85077;SDS011;75413;50.144;8.456;2024-03-23T17:31:48;0.73;;;0.30;;
85077;SDS011;75413;50.144;8.456;2024-03-23T17:34:31;1.20;;;0.70;;
85077;SDS011;75413;50.144;8.456;2024-03-23T17:37:15;1.50;;;0.28;;
85077;SDS011;75413;50.144;8.456;2024-03-23T17:40:02;0.45;;;0.32;;
85077;SDS011;75413;50.144;8.456;2024-03-23T17:42:47;0.68;;;0.50;;
85077;SDS011;75413;50.144;8.456;2024-03-23T17:45:38;2.33;;;0.52;;
85077;SDS011;75413;50.144;8.456;2024-03-23T17:48:22;0.90;;;0.47;;
85077;SDS011;75413;50.144;8.456;2024-03-23T17:51:06;2.42;;;0.45;;
85077;SDS011;75413;50.144;8.456;2024-03-23T17:53:50;1.83;;;0.40;;
85077;SDS011;75413;50.144;8.456;2024-03-23T17:56:34;5.90;;;0.98;;
85077;SDS011;75413;50.144;8.456;2024-03-23T17:59:20;0.98;;;0.70;;
85077;SDS011;75413;50.144;8.456;2024-03-23T18:02:04;1.98;;;0.80;;
85077;SDS011;75413;50.144;8.456;2024-03-23T18:04:48;2.08;;;0.70;;
85077;SDS011;75413;50.144;8.456;2024-03-23T18:07:33;1.70;;;0.68;;
85077;SDS011;75413;50.144;8.456;2024-03-23T18:10:17;4.90;;;1.52;;
85077;SDS011;75413;50.144;8.456;2024-03-23T18:13:01;2.08;;;1.10;;
85077;SDS011;75413;50.144;8.456;2024-03-23T18:15:45;1.20;;;1.02;;
85077;SDS011;75413;50.144;8.456;2024-03-23T18:18:29;3.72;;;1.30;;
85077;SDS011;75413;50.144;8.456;2024-03-23T18:23:58;3.58;;;1.60;;